sensor_id;sensor_type;location;lat;lon;timestamp;pressure;altitude;pressure_sealevel;temperature;humidity
78839;BME280;68405;47.190;27.558;2024-01-30T00:02:13;102324.33;;;-3.43;59.12
78839;BME280;68405;47.190;27.558;2024-01-30T00:04:44;102321.23;;;-3.44;59.05
78839;BME280;68405;47.190;27.558;2024-01-30T00:07:16;102323.45;;;-3.46;58.84
78839;BME280;68405;47.190;27.558;2024-01-30T00:09:49;102323.77;;;-3.47;58.74
78839;BME280;68405;47.190;27.558;2024-01-30T00:12:21;102320.79;;;-3.51;58.78
78839;BME280;68405;47.190;27.558;2024-01-30T00:14:52;102320.64;;;-3.51;59.00
78839;BME280;68405;47.190;27.558;2024-01-30T00:17:24;102322.77;;;-3.49;59.05
78839;BME280;68405;47.190;27.558;2024-01-30T00:19:56;102321.23;;;-3.49;58.76
78839;BME280;68405;47.190;27.558;2024-01-30T00:22:30;102320.98;;;-3.53;59.09
78839;BME280;68405;47.190;27.558;2024-01-30T00:25:02;102321.64;;;-3.51;59.39
78839;BME280;68405;47.190;27.558;2024-01-30T00:27:34;102320.40;;;-3.49;59.76
78839;BME280;68405;47.190;27.558;2024-01-30T00:30:07;102320.86;;;-3.50;59.80
78839;BME280;68405;47.190;27.558;2024-01-30T00:32:39;102319.59;;;-3.49;59.99
78839;BME280;68405;47.190;27.558;2024-01-30T00:35:11;102312.04;;;-3.47;59.87
78839;BME280;68405;47.190;27.558;2024-01-30T00:37:45;102307.33;;;-3.47;60.25
78839;BME280;68405;47.190;27.558;2024-01-30T00:40:17;102308.92;;;-3.48;59.68
78839;BME280;68405;47.190;27.558;2024-01-30T00:42:50;102312.37;;;-3.47;60.21
78839;BME280;68405;47.190;27.558;2024-01-30T00:45:22;102314.16;;;-3.46;60.03
78839;BME280;68405;47.190;27.558;2024-01-30T00:47:54;102316.98;;;-3.50;59.77
78839;BME280;68405;47.190;27.558;2024-01-30T00:50:27;102318.35;;;-3.55;59.59
78839;BME280;68405;47.190;27.558;2024-01-30T00:52:59;102320.19;;;-3.58;59.94
78839;BME280;68405;47.190;27.558;2024-01-30T00:55:31;102318.13;;;-3.56;60.45
78839;BME280;68405;47.190;27.558;2024-01-30T00:58:02;102321.23;;;-3.52;60.01
78839;BME280;68405;47.190;27.558;2024-01-30T01:00:36;102317.05;;;-3.51;60.03
78839;BME280;68405;47.190;27.558;2024-01-30T01:03:09;102317.40;;;-3.48;60.14
78839;BME280;68405;47.190;27.558;2024-01-30T01:05:40;102314.38;;;-3.45;59.83
78839;BME280;68405;47.190;27.558;2024-01-30T01:08:12;102313.27;;;-3.41;60.04
78839;BME280;68405;47.190;27.558;2024-01-30T01:10:44;102310.60;;;-3.37;60.33
78839;BME280;68405;47.190;27.558;2024-01-30T01:13:16;102309.60;;;-3.34;60.17
78839;BME280;68405;47.190;27.558;2024-01-30T01:15:51;102305.83;;;-3.32;60.42
78839;BME280;68405;47.190;27.558;2024-01-30T01:18:22;102299.92;;;-3.29;60.44
78839;BME280;68405;47.190;27.558;2024-01-30T01:20:57;102296.59;;;-3.28;60.18
78839;BME280;68405;47.190;27.558;2024-01-30T01:23:30;102296.38;;;-3.28;60.12
78839;BME280;68405;47.190;27.558;2024-01-30T01:26:02;102293.45;;;-3.32;59.80
78839;BME280;68405;47.190;27.558;2024-01-30T01:28:33;102293.70;;;-3.36;59.57
78839;BME280;68405;47.190;27.558;2024-01-30T01:31:05;102295.24;;;-3.38;59.72
78839;BME280;68405;47.190;27.558;2024-01-30T01:33:36;102293.48;;;-3.42;59.52
78839;BME280;68405;47.190;27.558;2024-01-30T01:36:09;102291.80;;;-3.45;59.36
78839;BME280;68405;47.190;27.558;2024-01-30T01:38:41;102289.34;;;-3.46;59.45
78839;BME280;68405;47.190;27.558;2024-01-30T01:41:13;102292.09;;;-3.45;59.23
78839;BME280;68405;47.190;27.558;2024-01-30T01:43:44;102290.50;;;-3.46;59.42
78839;BME280;68405;47.190;27.558;2024-01-30T01:46:16;102291.28;;;-3.48;59.52
78839;BME280;68405;47.190;27.558;2024-01-30T01:48:49;102290.00;;;-3.47;59.44
78839;BME280;68405;47.190;27.558;2024-01-30T01:51:21;102287.76;;;-3.44;59.40
78839;BME280;68405;47.190;27.558;2024-01-30T01:53:53;102285.45;;;-3.41;59.35
78839;BME280;68405;47.190;27.558;2024-01-30T01:56:26;102281.20;;;-3.40;59.35
78839;BME280;68405;47.190;27.558;2024-01-30T01:59:04;102285.06;;;-3.41;59.52
78839;BME280;68405;47.190;27.558;2024-01-30T02:01:38;102282.47;;;-3.42;59.50
78839;BME280;68405;47.190;27.558;2024-01-30T02:04:10;102281.98;;;-3.42;59.75
78839;BME280;68405;47.190;27.558;2024-01-30T02:06:44;102279.93;;;-3.42;59.86
78839;BME280;68405;47.190;27.558;2024-01-30T02:09:16;102275.34;;;-3.39;60.12
78839;BME280;68405;47.190;27.558;2024-01-30T02:11:47;102273.82;;;-3.36;60.06
78839;BME280;68405;47.190;27.558;2024-01-30T02:14:19;102273.91;;;-3.34;60.28
78839;BME280;68405;47.190;27.558;2024-01-30T02:16:50;102267.13;;;-3.34;60.25
78839;BME280;68405;47.190;27.558;2024-01-30T02:19:22;102265.39;;;-3.35;60.16
78839;BME280;68405;47.190;27.558;2024-01-30T02:21:54;102261.33;;;-3.37;60.08
78839;BME280;68405;47.190;27.558;2024-01-30T02:24:25;102260.11;;;-3.38;59.98
78839;BME280;68405;47.190;27.558;2024-01-30T02:26:57;102265.80;;;-3.36;60.02
78839;BME280;68405;47.190;27.558;2024-01-30T02:29:29;102265.83;;;-3.33;60.18
78839;BME280;68405;47.190;27.558;2024-01-30T02:32:01;102267.55;;;-3.30;60.20
78839;BME280;68405;47.190;27.558;2024-01-30T02:34:34;102266.98;;;-3.31;60.49
78839;BME280;68405;47.190;27.558;2024-01-30T02:37:06;102265.55;;;-3.38;60.32
78839;BME280;68405;47.190;27.558;2024-01-30T02:39:38;102264.92;;;-3.37;60.38
78839;BME280;68405;47.190;27.558;2024-01-30T02:42:10;102262.59;;;-3.31;61.11
78839;BME280;68405;47.190;27.558;2024-01-30T02:44:41;102262.30;;;-3.24;61.69
78839;BME280;68405;47.190;27.558;2024-01-30T02:47:13;102258.38;;;-3.19;62.21
78839;BME280;68405;47.190;27.558;2024-01-30T02:49:44;102256.95;;;-3.17;62.32
78839;BME280;68405;47.190;27.558;2024-01-30T02:52:16;102260.34;;;-3.20;61.99
78839;BME280;68405;47.190;27.558;2024-01-30T02:54:49;102255.38;;;-3.20;61.68
78839;BME280;68405;47.190;27.558;2024-01-30T02:57:23;102250.21;;;-3.19;61.72
78839;BME280;68405;47.190;27.558;2024-01-30T02:59:55;102247.69;;;-3.15;61.53
78839;BME280;68405;47.190;27.558;2024-01-30T03:02:27;102242.31;;;-3.11;62.27
78839;BME280;68405;47.190;27.558;2024-01-30T03:04:59;102237.23;;;-3.09;62.55
78839;BME280;68405;47.190;27.558;2024-01-30T03:07:30;102237.08;;;-3.08;62.21
78839;BME280;68405;47.190;27.558;2024-01-30T03:10:03;102232.89;;;-3.07;62.72
78839;BME280;68405;47.190;27.558;2024-01-30T03:12:36;102233.00;;;-3.05;62.83
78839;BME280;68405;47.190;27.558;2024-01-30T03:15:08;102232.09;;;-3.03;63.42
78839;BME280;68405;47.190;27.558;2024-01-30T03:17:40;102229.02;;;-3.03;63.18
78839;BME280;68405;47.190;27.558;2024-01-30T03:20:13;102226.34;;;-3.03;63.67
78839;BME280;68405;47.190;27.558;2024-01-30T03:22:46;102226.29;;;-3.04;63.44
78839;BME280;68405;47.190;27.558;2024-01-30T03:25:18;102228.79;;;-3.07;63.32
78839;BME280;68405;47.190;27.558;2024-01-30T03:27:50;102229.73;;;-3.09;63.25
78839;BME280;68405;47.190;27.558;2024-01-30T03:30:22;102231.58;;;-3.12;64.31
78839;BME280;68405;47.190;27.558;2024-01-30T03:32:54;102231.36;;;-3.21;64.43
78839;BME280;68405;47.190;27.558;2024-01-30T03:35:25;102231.77;;;-3.29;64.24
78839;BME280;68405;47.190;27.558;2024-01-30T03:37:58;102234.79;;;-3.35;64.52
78839;BME280;68405;47.190;27.558;2024-01-30T03:40:32;102234.30;;;-3.38;64.41
78839;BME280;68405;47.190;27.558;2024-01-30T03:43:04;102232.37;;;-3.42;62.91
78839;BME280;68405;47.190;27.558;2024-01-30T03:45:36;102237.88;;;-3.43;63.21
78839;BME280;68405;47.190;27.558;2024-01-30T03:48:10;102235.60;;;-3.44;63.23
78839;BME280;68405;47.190;27.558;2024-01-30T03:50:41;102229.95;;;-3.48;63.76
78839;BME280;68405;47.190;27.558;2024-01-30T03:53:13;102228.55;;;-3.51;64.12
78839;BME280;68405;47.190;27.558;2024-01-30T03:55:45;102228.19;;;-3.54;64.58
78839;BME280;68405;47.190;27.558;2024-01-30T03:58:16;102231.11;;;-3.60;63.63
78839;BME280;68405;47.190;27.558;2024-01-30T04:00:48;102231.54;;;-3.64;63.76
78839;BME280;68405;47.190;27.558;2024-01-30T04:03:20;102234.16;;;-3.68;63.41
78839;BME280;68405;47.190;27.558;2024-01-30T04:05:55;102225.48;;;-3.68;63.72
78839;BME280;68405;47.190;27.558;2024-01-30T04:08:27;102229.77;;;-3.67;63.73
78839;BME280;68405;47.190;27.558;2024-01-30T04:10:58;102232.42;;;-3.68;63.30
78839;BME280;68405;47.190;27.558;2024-01-30T04:13:30;102230.91;;;-3.68;63.07
78839;BME280;68405;47.190;27.558;2024-01-30T04:16:02;102231.90;;;-3.66;63.27
78839;BME280;68405;47.190;27.558;2024-01-30T04:18:34;102230.11;;;-3.65;63.32
78839;BME280;68405;47.190;27.558;2024-01-30T04:21:06;102229.14;;;-3.64;63.86
78839;BME280;68405;47.190;27.558;2024-01-30T04:23:37;102226.48;;;-3.66;63.47
78839;BME280;68405;47.190;27.558;2024-01-30T04:26:11;102230.79;;;-3.67;62.87
78839;BME280;68405;47.190;27.558;2024-01-30T04:28:45;102229.19;;;-3.66;62.67
78839;BME280;68405;47.190;27.558;2024-01-30T04:31:17;102228.61;;;-3.67;62.63
78839;BME280;68405;47.190;27.558;2024-01-30T04:33:51;102228.66;;;-3.66;63.28
78839;BME280;68405;47.190;27.558;2024-01-30T04:36:23;102230.21;;;-3.61;63.72
78839;BME280;68405;47.190;27.558;2024-01-30T04:38:54;102234.40;;;-3.56;63.50
78839;BME280;68405;47.190;27.558;2024-01-30T04:41:26;102236.38;;;-3.51;63.00
78839;BME280;68405;47.190;27.558;2024-01-30T04:43:59;102236.71;;;-3.48;62.97
78839;BME280;68405;47.190;27.558;2024-01-30T04:46:31;102238.54;;;-3.46;63.13
78839;BME280;68405;47.190;27.558;2024-01-30T04:49:05;102240.23;;;-3.46;62.77
78839;BME280;68405;47.190;27.558;2024-01-30T04:51:37;102243.56;;;-3.50;62.96
78839;BME280;68405;47.190;27.558;2024-01-30T04:54:09;102244.34;;;-3.51;63.46
78839;BME280;68405;47.190;27.558;2024-01-30T04:56:41;102242.36;;;-3.50;63.29
78839;BME280;68405;47.190;27.558;2024-01-30T04:59:13;102242.31;;;-3.48;63.42
78839;BME280;68405;47.190;27.558;2024-01-30T05:01:45;102243.53;;;-3.45;63.91
78839;BME280;68405;47.190;27.558;2024-01-30T05:04:17;102246.20;;;-3.43;63.25
78839;BME280;68405;47.190;27.558;2024-01-30T05:06:49;102250.13;;;-3.43;63.43
78839;BME280;68405;47.190;27.558;2024-01-30T05:09:21;102249.04;;;-3.41;63.85
78839;BME280;68405;47.190;27.558;2024-01-30T05:11:52;102248.75;;;-3.40;63.57
78839;BME280;68405;47.190;27.558;2024-01-30T05:14:24;102243.81;;;-3.41;63.70
78839;BME280;68405;47.190;27.558;2024-01-30T05:16:56;102244.01;;;-3.43;63.79
78839;BME280;68405;47.190;27.558;2024-01-30T05:19:28;102244.07;;;-3.48;64.23
78839;BME280;68405;47.190;27.558;2024-01-30T05:22:00;102245.85;;;-3.49;64.40
78839;BME280;68405;47.190;27.558;2024-01-30T05:24:41;102247.41;;;-3.51;64.72
78839;BME280;68405;47.190;27.558;2024-01-30T05:27:13;102241.80;;;-3.54;64.45
78839;BME280;68405;47.190;27.558;2024-01-30T05:29:45;102238.37;;;-3.54;64.29
78839;BME280;68405;47.190;27.558;2024-01-30T05:32:16;102243.00;;;-3.54;63.97
78839;BME280;68405;47.190;27.558;2024-01-30T05:34:48;102243.08;;;-3.55;63.55
78839;BME280;68405;47.190;27.558;2024-01-30T05:37:20;102243.63;;;-3.63;64.10
78839;BME280;68405;47.190;27.558;2024-01-30T05:39:52;102241.83;;;-3.65;63.53
78839;BME280;68405;47.190;27.558;2024-01-30T05:42:24;102241.34;;;-3.65;63.24
78839;BME280;68405;47.190;27.558;2024-01-30T05:44:56;102242.36;;;-3.62;63.22
78839;BME280;68405;47.190;27.558;2024-01-30T05:47:28;102244.73;;;-3.56;63.24
78839;BME280;68405;47.190;27.558;2024-01-30T05:50:03;102245.78;;;-3.48;63.02
78839;BME280;68405;47.190;27.558;2024-01-30T05:52:38;102242.71;;;-3.39;63.16
78839;BME280;68405;47.190;27.558;2024-01-30T05:55:11;102243.08;;;-3.27;63.18
78839;BME280;68405;47.190;27.558;2024-01-30T05:57:43;102241.79;;;-3.17;63.15
78839;BME280;68405;47.190;27.558;2024-01-30T06:00:17;102243.40;;;-3.08;62.94
78839;BME280;68405;47.190;27.558;2024-01-30T06:02:49;102243.42;;;-2.93;63.37
78839;BME280;68405;47.190;27.558;2024-01-30T06:05:22;102236.33;;;-2.68;64.02
78839;BME280;68405;47.190;27.558;2024-01-30T06:07:56;102231.02;;;-2.36;65.23
78839;BME280;68405;47.190;27.558;2024-01-30T06:10:28;102227.30;;;-1.95;64.59
78839;BME280;68405;47.190;27.558;2024-01-30T06:13:00;102225.13;;;-1.26;64.50
78839;BME280;68405;47.190;27.558;2024-01-30T06:15:32;102227.55;;;-0.57;64.11
78839;BME280;68405;47.190;27.558;2024-01-30T06:18:06;102230.45;;;0.37;64.06
78839;BME280;68405;47.190;27.558;2024-01-30T06:20:38;102230.70;;;1.18;63.72
78839;BME280;68405;47.190;27.558;2024-01-30T06:23:16;102226.84;;;2.48;63.66
78839;BME280;68405;47.190;27.558;2024-01-30T06:25:49;102226.31;;;3.25;63.40
78839;BME280;68405;47.190;27.558;2024-01-30T06:28:20;102222.77;;;4.09;63.23
78839;BME280;68405;47.190;27.558;2024-01-30T06:30:52;102221.77;;;5.23;62.86
78839;BME280;68405;47.190;27.558;2024-01-30T06:33:24;102219.21;;;6.45;62.18
78839;BME280;68405;47.190;27.558;2024-01-30T06:35:55;102224.17;;;8.19;60.73
78839;BME280;68405;47.190;27.558;2024-01-30T06:38:27;102219.05;;;10.18;60.52
78839;BME280;68405;47.190;27.558;2024-01-30T06:41:02;102221.23;;;11.98;59.24
78839;BME280;68405;47.190;27.558;2024-01-30T06:43:36;102219.12;;;13.57;56.44
78839;BME280;68405;47.190;27.558;2024-01-30T06:46:08;102218.54;;;14.95;55.19
78839;BME280;68405;47.190;27.558;2024-01-30T06:48:40;102214.57;;;16.04;53.15
78839;BME280;68405;47.190;27.558;2024-01-30T06:51:15;102207.13;;;16.99;51.11
78839;BME280;68405;47.190;27.558;2024-01-30T06:53:47;102208.21;;;17.67;48.74
78839;BME280;68405;47.190;27.558;2024-01-30T06:56:23;102203.04;;;18.45;45.67
78839;BME280;68405;47.190;27.558;2024-01-30T06:58:58;102200.23;;;18.68;41.37
78839;BME280;68405;47.190;27.558;2024-01-30T07:01:31;102201.71;;;19.27;42.10
78839;BME280;68405;47.190;27.558;2024-01-30T07:04:03;102199.95;;;19.98;39.12
78839;BME280;68405;47.190;27.558;2024-01-30T07:06:36;102196.70;;;20.78;38.65
78839;BME280;68405;47.190;27.558;2024-01-30T07:09:14;102196.33;;;21.72;36.55
78839;BME280;68405;47.190;27.558;2024-01-30T07:11:46;102195.69;;;22.41;34.12
78839;BME280;68405;47.190;27.558;2024-01-30T07:14:18;102194.86;;;22.99;33.17
78839;BME280;68405;47.190;27.558;2024-01-30T07:16:50;102192.46;;;23.54;31.66
78839;BME280;68405;47.190;27.558;2024-01-30T07:19:21;102193.02;;;24.20;31.77
78839;BME280;68405;47.190;27.558;2024-01-30T07:21:54;102191.80;;;24.96;27.87
78839;BME280;68405;47.190;27.558;2024-01-30T07:24:26;102191.20;;;25.72;27.80
78839;BME280;68405;47.190;27.558;2024-01-30T07:26:59;102187.79;;;26.10;25.88
78839;BME280;68405;47.190;27.558;2024-01-30T07:29:31;102188.20;;;26.18;25.75
78839;BME280;68405;47.190;27.558;2024-01-30T07:32:03;102182.88;;;26.59;24.49
78839;BME280;68405;47.190;27.558;2024-01-30T07:34:37;102184.22;;;26.87;24.45
78839;BME280;68405;47.190;27.558;2024-01-30T07:37:08;102179.71;;;27.38;23.00
78839;BME280;68405;47.190;27.558;2024-01-30T07:39:44;102176.30;;;27.80;23.37
78839;BME280;68405;47.190;27.558;2024-01-30T07:42:17;102178.04;;;28.36;21.25
78839;BME280;68405;47.190;27.558;2024-01-30T07:44:49;102177.63;;;28.71;20.75
78839;BME280;68405;47.190;27.558;2024-01-30T07:47:21;102174.95;;;29.20;20.68
78839;BME280;68405;47.190;27.558;2024-01-30T07:49:54;102175.93;;;29.54;19.80
78839;BME280;68405;47.190;27.558;2024-01-30T07:52:26;102175.99;;;29.81;18.77
78839;BME280;68405;47.190;27.558;2024-01-30T07:54:58;102168.72;;;30.22;18.93
78839;BME280;68405;47.190;27.558;2024-01-30T07:57:32;102166.25;;;30.74;17.48
78839;BME280;68405;47.190;27.558;2024-01-30T08:00:05;102168.36;;;30.96;18.20
78839;BME280;68405;47.190;27.558;2024-01-30T08:02:39;102158.98;;;31.09;17.15
78839;BME280;68405;47.190;27.558;2024-01-30T08:05:11;102155.48;;;31.23;16.57
78839;BME280;68405;47.190;27.558;2024-01-30T08:07:45;102150.50;;;31.16;16.23
78839;BME280;68405;47.190;27.558;2024-01-30T08:10:17;102139.33;;;31.21;15.81
78839;BME280;68405;47.190;27.558;2024-01-30T08:12:49;102139.52;;;30.93;14.50
78839;BME280;68405;47.190;27.558;2024-01-30T08:15:21;102143.85;;;30.24;15.19
78839;BME280;68405;47.190;27.558;2024-01-30T08:17:53;102149.00;;;30.33;14.49
78839;BME280;68405;47.190;27.558;2024-01-30T08:20:30;102152.41;;;30.20;14.70
78839;BME280;68405;47.190;27.558;2024-01-30T08:23:02;102150.95;;;30.55;14.24
78839;BME280;68405;47.190;27.558;2024-01-30T08:25:33;102154.20;;;31.13;14.31
78839;BME280;68405;47.190;27.558;2024-01-30T08:28:05;102152.11;;;31.31;14.30
78839;BME280;68405;47.190;27.558;2024-01-30T08:30:41;102146.09;;;31.55;13.40
78839;BME280;68405;47.190;27.558;2024-01-30T08:33:14;102143.04;;;31.79;13.64
78839;BME280;68405;47.190;27.558;2024-01-30T08:35:46;102145.50;;;31.94;12.95
78839;BME280;68405;47.190;27.558;2024-01-30T08:38:19;102147.99;;;32.13;12.60
78839;BME280;68405;47.190;27.558;2024-01-30T08:40:57;102143.73;;;32.57;12.65
78839;BME280;68405;47.190;27.558;2024-01-30T08:43:29;102147.30;;;32.68;12.87
78839;BME280;68405;47.190;27.558;2024-01-30T08:46:02;102137.30;;;32.69;12.68
78839;BME280;68405;47.190;27.558;2024-01-30T08:48:38;102132.72;;;32.64;12.31
78839;BME280;68405;47.190;27.558;2024-01-30T08:51:11;102131.80;;;32.56;12.18
78839;BME280;68405;47.190;27.558;2024-01-30T08:53:43;102125.50;;;32.52;12.09
78839;BME280;68405;47.190;27.558;2024-01-30T08:56:15;102127.38;;;32.53;11.64
78839;BME280;68405;47.190;27.558;2024-01-30T08:58:48;102119.95;;;31.74;11.80
78839;BME280;68405;47.190;27.558;2024-01-30T09:01:20;102114.92;;;30.91;11.48
78839;BME280;68405;47.190;27.558;2024-01-30T09:03:52;102120.75;;;29.79;12.30
78839;BME280;68405;47.190;27.558;2024-01-30T09:06:25;102116.24;;;29.43;12.17
78839;BME280;68405;47.190;27.558;2024-01-30T09:09:02;102116.50;;;28.36;12.62
78839;BME280;68405;47.190;27.558;2024-01-30T09:11:36;102114.67;;;28.25;13.12
78839;BME280;68405;47.190;27.558;2024-01-30T09:14:11;102118.60;;;28.75;13.04
78839;BME280;68405;47.190;27.558;2024-01-30T09:16:43;102122.25;;;28.81;12.94
78839;BME280;68405;47.190;27.558;2024-01-30T09:19:17;102114.41;;;29.48;12.73
78839;BME280;68405;47.190;27.558;2024-01-30T09:21:49;102113.13;;;29.96;12.66
78839;BME280;68405;47.190;27.558;2024-01-30T09:24:21;102115.05;;;30.88;12.40
78839;BME280;68405;47.190;27.558;2024-01-30T09:26:56;102117.16;;;31.67;11.93
78839;BME280;68405;47.190;27.558;2024-01-30T09:29:29;102121.36;;;31.46;11.65
78839;BME280;68405;47.190;27.558;2024-01-30T09:32:03;102111.98;;;31.01;11.69
78839;BME280;68405;47.190;27.558;2024-01-30T09:34:35;102112.27;;;31.22;11.52
78839;BME280;68405;47.190;27.558;2024-01-30T09:37:10;102111.64;;;31.38;11.86
78839;BME280;68405;47.190;27.558;2024-01-30T09:39:43;102112.41;;;31.39;11.65
78839;BME280;68405;47.190;27.558;2024-01-30T09:42:21;102111.03;;;30.90;11.62
78839;BME280;68405;47.190;27.558;2024-01-30T09:44:56;102106.09;;;30.14;11.77
78839;BME280;68405;47.190;27.558;2024-01-30T09:47:29;102106.08;;;29.92;12.29
78839;BME280;68405;47.190;27.558;2024-01-30T09:50:03;102110.26;;;30.55;12.18
78839;BME280;68405;47.190;27.558;2024-01-30T09:52:50;102112.99;;;31.41;11.54
78839;BME280;68405;47.190;27.558;2024-01-30T09:55:24;102116.00;;;31.41;11.64
78839;BME280;68405;47.190;27.558;2024-01-30T09:57:56;102115.34;;;31.86;11.48
78839;BME280;68405;47.190;27.558;2024-01-30T10:00:29;102112.31;;;31.77;11.30
78839;BME280;68405;47.190;27.558;2024-01-30T10:03:01;102102.92;;;31.45;10.90
78839;BME280;68405;47.190;27.558;2024-01-30T10:05:42;102095.95;;;30.82;11.44
78839;BME280;68405;47.190;27.558;2024-01-30T10:08:22;102091.51;;;30.24;11.65
78839;BME280;68405;47.190;27.558;2024-01-30T10:10:55;102090.42;;;30.15;11.60
78839;BME280;68405;47.190;27.558;2024-01-30T10:13:29;102091.55;;;29.84;11.58
78839;BME280;68405;47.190;27.558;2024-01-30T10:16:01;102088.04;;;28.62;11.49
78839;BME280;68405;47.190;27.558;2024-01-30T10:18:39;102079.97;;;27.38;12.20
78839;BME280;68405;47.190;27.558;2024-01-30T10:21:14;102071.67;;;26.98;12.39
78839;BME280;68405;47.190;27.558;2024-01-30T10:23:46;102066.11;;;26.30;12.89
78839;BME280;68405;47.190;27.558;2024-01-30T10:26:19;102064.34;;;25.96;13.08
78839;BME280;68405;47.190;27.558;2024-01-30T10:28:52;102058.20;;;25.55;13.25
78839;BME280;68405;47.190;27.558;2024-01-30T10:31:27;102054.52;;;24.59;13.63
78839;BME280;68405;47.190;27.558;2024-01-30T10:34:03;102053.88;;;23.57;14.07
78839;BME280;68405;47.190;27.558;2024-01-30T10:36:41;102048.08;;;23.20;14.76
78839;BME280;68405;47.190;27.558;2024-01-30T10:39:18;102046.64;;;23.57;14.71
78839;BME280;68405;47.190;27.558;2024-01-30T10:41:55;102047.80;;;23.65;14.83
78839;BME280;68405;47.190;27.558;2024-01-30T10:44:30;102050.40;;;23.63;14.58
78839;BME280;68405;47.190;27.558;2024-01-30T10:47:11;102044.63;;;23.15;14.56
78839;BME280;68405;47.190;27.558;2024-01-30T10:49:44;102040.61;;;22.93;14.63
78839;BME280;68405;47.190;27.558;2024-01-30T10:52:18;102037.95;;;22.55;14.91
78839;BME280;68405;47.190;27.558;2024-01-30T10:54:49;102039.31;;;22.38;15.11
78839;BME280;68405;47.190;27.558;2024-01-30T10:57:23;102040.14;;;21.83;15.50
78839;BME280;68405;47.190;27.558;2024-01-30T10:59:58;102042.83;;;21.72;15.86
78839;BME280;68405;47.190;27.558;2024-01-30T11:02:35;102041.99;;;21.55;15.86
78839;BME280;68405;47.190;27.558;2024-01-30T11:05:10;102037.63;;;20.94;16.20
78839;BME280;68405;47.190;27.558;2024-01-30T11:07:42;102036.21;;;20.56;16.37
78839;BME280;68405;47.190;27.558;2024-01-30T11:10:15;102028.40;;;20.23;16.69
78839;BME280;68405;47.190;27.558;2024-01-30T11:12:47;102025.70;;;20.11;17.11
78839;BME280;68405;47.190;27.558;2024-01-30T11:15:21;102020.22;;;19.93;17.08
78839;BME280;68405;47.190;27.558;2024-01-30T11:17:56;102021.64;;;19.98;17.17
78839;BME280;68405;47.190;27.558;2024-01-30T11:20:29;102022.08;;;19.90;17.28
78839;BME280;68405;47.190;27.558;2024-01-30T11:23:01;102015.15;;;19.97;17.26
78839;BME280;68405;47.190;27.558;2024-01-30T11:25:37;102015.27;;;20.11;17.28
78839;BME280;68405;47.190;27.558;2024-01-30T11:28:15;102014.05;;;20.32;17.25
78839;BME280;68405;47.190;27.558;2024-01-30T11:30:47;102006.35;;;19.72;17.22
78839;BME280;68405;47.190;27.558;2024-01-30T11:33:31;102002.18;;;19.48;17.63
78839;BME280;68405;47.190;27.558;2024-01-30T11:36:10;101998.25;;;19.15;17.83
78839;BME280;68405;47.190;27.558;2024-01-30T11:38:44;101992.09;;;18.65;18.16
78839;BME280;68405;47.190;27.558;2024-01-30T11:41:17;101987.89;;;17.94;18.86
78839;BME280;68405;47.190;27.558;2024-01-30T11:43:54;101986.36;;;17.63;19.05
78839;BME280;68405;47.190;27.558;2024-01-30T11:46:28;101981.81;;;17.33;19.28
78839;BME280;68405;47.190;27.558;2024-01-30T11:49:03;101974.53;;;17.41;19.50
78839;BME280;68405;47.190;27.558;2024-01-30T11:51:35;101966.20;;;17.84;19.54
78839;BME280;68405;47.190;27.558;2024-01-30T11:54:09;101960.50;;;17.93;19.36
78839;BME280;68405;47.190;27.558;2024-01-30T11:56:41;101961.88;;;17.88;19.39
78839;BME280;68405;47.190;27.558;2024-01-30T11:59:13;101958.11;;;17.62;19.61
78839;BME280;68405;47.190;27.558;2024-01-30T12:01:45;101952.23;;;17.29;19.98
78839;BME280;68405;47.190;27.558;2024-01-30T12:04:17;101955.34;;;17.12;19.89
78839;BME280;68405;47.190;27.558;2024-01-30T12:06:54;101953.99;;;16.65;20.31
78839;BME280;68405;47.190;27.558;2024-01-30T12:09:26;101955.40;;;16.00;20.84
78839;BME280;68405;47.190;27.558;2024-01-30T12:11:59;101953.20;;;15.66;21.26
78839;BME280;68405;47.190;27.558;2024-01-30T12:14:32;101955.20;;;15.38;21.63
78839;BME280;68405;47.190;27.558;2024-01-30T12:17:04;101954.41;;;14.90;21.84
78839;BME280;68405;47.190;27.558;2024-01-30T12:19:37;101950.16;;;14.64;22.14
78839;BME280;68405;47.190;27.558;2024-01-30T12:22:15;101947.23;;;14.30;22.88
78839;BME280;68405;47.190;27.558;2024-01-30T12:24:46;101947.62;;;13.71;23.19
78839;BME280;68405;47.190;27.558;2024-01-30T12:27:19;101946.42;;;13.43;23.81
78839;BME280;68405;47.190;27.558;2024-01-30T12:29:57;101950.34;;;12.74;24.66
78839;BME280;68405;47.190;27.558;2024-01-30T12:32:31;101943.54;;;12.13;25.54
78839;BME280;68405;47.190;27.558;2024-01-30T12:35:17;101938.70;;;11.82;25.31
78839;BME280;68405;47.190;27.558;2024-01-30T12:38:10;101943.96;;;11.74;25.66
78839;BME280;68405;47.190;27.558;2024-01-30T12:40:42;101947.33;;;11.28;25.87
78839;BME280;68405;47.190;27.558;2024-01-30T12:43:15;101944.29;;;11.00;26.96
78839;BME280;68405;47.190;27.558;2024-01-30T12:45:49;101940.71;;;10.57;27.49
78839;BME280;68405;47.190;27.558;2024-01-30T12:48:21;101941.25;;;10.26;27.12
78839;BME280;68405;47.190;27.558;2024-01-30T12:50:57;101937.77;;;10.22;28.04
78839;BME280;68405;47.190;27.558;2024-01-30T12:53:29;101931.69;;;10.03;28.71
78839;BME280;68405;47.190;27.558;2024-01-30T12:56:01;101933.04;;;9.77;29.27
78839;BME280;68405;47.190;27.558;2024-01-30T12:58:33;101928.24;;;9.40;29.51
78839;BME280;68405;47.190;27.558;2024-01-30T13:01:06;101933.35;;;9.15;29.72
78839;BME280;68405;47.190;27.558;2024-01-30T13:03:40;101929.48;;;9.01;30.42
78839;BME280;68405;47.190;27.558;2024-01-30T13:06:12;101929.20;;;8.81;30.32
78839;BME280;68405;47.190;27.558;2024-01-30T13:08:44;101925.50;;;8.72;30.45
78839;BME280;68405;47.190;27.558;2024-01-30T13:11:15;101927.83;;;8.56;31.08